createdAt,value
2022-09-15T00:00:21.706Z,65.92
2022-09-15T00:01:21.926Z,65.92
2022-09-15T00:02:22.111Z,65.95
2022-09-15T00:03:22.219Z,65.92
2022-09-15T00:04:22.394Z,66.05
2022-09-15T00:05:22.570Z,65.95
2022-09-15T00:06:22.740Z,65.95
2022-09-15T00:07:22.902Z,66.05
2022-09-15T00:08:23.056Z,66.05
2022-09-15T00:09:23.227Z,66.05
2022-09-15T00:10:23.402Z,65.95
2022-09-15T00:11:23.562Z,66.05
2022-09-15T00:12:23.757Z,66.05
2022-09-15T00:13:23.912Z,66.05
2022-09-15T00:14:24.103Z,66.05
2022-09-15T00:15:24.274Z,66.05
2022-09-15T00:16:24.476Z,66.05
2022-09-15T00:17:24.594Z,66.05
2022-09-15T00:18:24.795Z,66.05
2022-09-15T00:19:24.956Z,66.05
2022-09-15T00:20:25.124Z,66.05
2022-09-15T00:21:25.285Z,66.05
2022-09-15T00:22:25.459Z,66.16
2022-09-15T00:23:25.616Z,66.16
2022-09-15T00:24:25.775Z,66.16
2022-09-15T00:25:25.941Z,66.16
2022-09-15T00:26:26.114Z,66.16
2022-09-15T00:27:26.270Z,66.05
2022-09-15T00:28:26.433Z,66.16
2022-09-15T00:29:26.593Z,66.16
2022-09-15T00:30:26.807Z,66.25
2022-09-15T00:31:27.016Z,66.05
2022-09-15T00:32:27.086Z,66.16
2022-09-15T00:33:27.269Z,66.16
2022-09-15T00:34:27.473Z,66.25
2022-09-15T00:35:27.632Z,66.25
2022-09-15T00:36:27.811Z,66.16
2022-09-15T00:37:27.972Z,66.16
2022-09-15T00:38:28.164Z,66.25
2022-09-15T00:39:28.315Z,66.16
2022-09-15T00:40:28.505Z,66.25
2022-09-15T00:41:28.678Z,66.25
2022-09-15T00:42:28.800Z,66.25
2022-09-15T00:43:28.963Z,66.25
2022-09-15T00:44:29.123Z,66.25
2022-09-15T00:45:29.308Z,66.28
2022-09-15T00:46:29.454Z,66.25
2022-09-15T00:47:29.615Z,66.28
2022-09-15T00:48:29.784Z,66.28
2022-09-15T00:49:29.946Z,66.28
2022-09-15T00:50:30.101Z,66.39
2022-09-15T00:51:30.311Z,66.28
2022-09-15T00:52:30.484Z,66.28
2022-09-15T00:53:30.655Z,66.28
2022-09-15T00:54:30.816Z,66.28
2022-09-15T00:55:30.975Z,66.28
2022-09-15T00:56:31.150Z,66.39
2022-09-15T00:57:31.315Z,66.39
2022-09-15T00:58:31.472Z,66.39
2022-09-15T00:59:31.627Z,66.28
2022-09-15T01:00:31.787Z,66.28
2022-09-15T01:01:32.135Z,66.28
2022-09-15T01:02:32.246Z,66.28
2022-09-15T01:03:32.340Z,66.39
2022-09-15T01:04:32.503Z,66.28
2022-09-15T01:05:32.695Z,66.28
2022-09-15T01:06:32.878Z,66.28
2022-09-15T01:07:33.039Z,66.28
2022-09-15T01:08:33.191Z,66.28
2022-09-15T01:09:33.351Z,66.39
2022-09-15T01:10:33.512Z,66.39
2022-09-15T01:11:33.684Z,66.28
2022-09-15T01:12:33.841Z,66.39
2022-09-15T01:13:34.003Z,66.28
2022-09-15T01:14:34.165Z,66.39
2022-09-15T01:15:34.322Z,66.39
2022-09-15T01:16:34.571Z,66.39
2022-09-15T01:17:34.684Z,66.28
2022-09-15T01:18:34.824Z,66.28
2022-09-15T01:19:34.986Z,66.39
2022-09-15T01:20:35.154Z,66.28
2022-09-15T01:21:35.325Z,66.28
2022-09-15T01:22:35.497Z,66.28
2022-09-15T01:23:35.655Z,66.42
2022-09-15T01:24:35.810Z,66.28
2022-09-15T01:25:35.975Z,66.42
2022-09-15T01:26:36.148Z,66.42
2022-09-15T01:27:42.593Z,66.32
2022-09-15T01:28:37.488Z,66.42
2022-09-15T01:29:36.668Z,66.32
2022-09-15T01:30:36.828Z,66.32
2022-09-15T01:31:37.071Z,66.42
2022-09-15T01:32:37.140Z,66.42
2022-09-15T01:33:37.344Z,66.42
2022-09-15T01:34:37.498Z,66.32
2022-09-15T01:35:37.668Z,66.42
2022-09-15T01:36:37.839Z,66.42
2022-09-15T01:37:38.004Z,66.42
2022-09-15T01:38:38.165Z,66.42
2022-09-15T01:39:38.321Z,66.32
2022-09-15T01:40:38.506Z,66.32
2022-09-15T01:41:38.676Z,66.42
2022-09-15T01:42:38.842Z,66.42
2022-09-15T01:43:46.017Z,66.42
2022-09-15T01:44:39.170Z,66.52
2022-09-15T01:45:39.400Z,66.65
2022-09-15T01:46:39.500Z,66.65
2022-09-15T01:47:39.717Z,66.65
2022-09-15T01:48:39.866Z,66.65
2022-09-15T01:49:40.055Z,66.65
2022-09-15T01:50:40.220Z,66.65
2022-09-15T01:51:40.382Z,66.55
2022-09-15T01:52:40.552Z,66.52
2022-09-15T01:53:40.714Z,66.55
2022-09-15T01:54:40.871Z,66.55
2022-09-15T01:55:41.032Z,66.55
2022-09-15T01:56:41.189Z,66.45
2022-09-15T01:57:41.363Z,66.55
2022-09-15T01:58:41.514Z,66.55
2022-09-15T01:59:41.708Z,66.45
2022-09-15T02:00:41.979Z,66.55
2022-09-15T02:01:42.154Z,66.55
2022-09-15T02:02:42.245Z,66.55
2022-09-15T02:03:42.399Z,66.65
2022-09-15T02:04:42.596Z,66.55
2022-09-15T02:05:42.756Z,66.45
2022-09-15T02:06:42.912Z,66.55
2022-09-15T02:07:43.088Z,66.55
2022-09-15T02:08:43.244Z,66.55
2022-09-15T02:09:43.424Z,66.55
2022-09-15T02:10:43.569Z,66.45
2022-09-15T02:11:43.758Z,66.55
2022-09-15T02:12:44.016Z,66.55
2022-09-15T02:13:44.089Z,66.55
2022-09-15T02:14:44.248Z,66.55
2022-09-15T02:15:44.447Z,66.55
2022-09-15T02:16:44.623Z,66.55
2022-09-15T02:17:44.793Z,66.55
2022-09-15T02:18:44.941Z,66.55
2022-09-15T02:19:45.099Z,66.55
2022-09-15T02:20:45.261Z,66.55
2022-09-15T02:21:45.454Z,66.55
2022-09-15T02:22:45.647Z,66.65
2022-09-15T02:23:45.803Z,66.55
2022-09-15T02:24:45.964Z,66.55
2022-09-15T02:25:46.152Z,66.55
2022-09-15T02:26:46.313Z,66.65
2022-09-15T02:27:46.483Z,66.55
2022-09-15T02:28:46.669Z,66.65
2022-09-15T02:29:46.823Z,66.55
2022-09-15T02:30:46.985Z,66.45
2022-09-15T02:31:47.245Z,66.65
2022-09-15T02:32:47.335Z,66.65
2022-09-15T02:33:47.495Z,66.65
2022-09-15T02:34:47.647Z,66.68
2022-09-15T02:35:47.835Z,66.65
2022-09-15T02:36:48.049Z,66.55
2022-09-15T02:37:48.206Z,66.68
2022-09-15T02:38:48.362Z,66.68
2022-09-15T02:39:48.556Z,66.58
2022-09-15T02:40:48.681Z,66.58
2022-09-15T02:41:48.854Z,66.58
2022-09-15T02:42:49.016Z,66.68
2022-09-15T02:43:49.177Z,66.68
2022-09-15T02:44:49.342Z,66.68
2022-09-15T02:45:49.586Z,66.78
2022-09-15T02:46:49.728Z,66.68
2022-09-15T02:47:49.890Z,66.78
2022-09-15T02:48:50.046Z,66.78
2022-09-15T02:49:50.212Z,66.68
2022-09-15T02:50:50.368Z,66.78
2022-09-15T02:51:50.580Z,66.78
2022-09-15T02:52:50.732Z,66.78
2022-09-15T02:53:51.034Z,66.78
2022-09-15T02:54:51.085Z,66.88
2022-09-15T02:55:51.305Z,66.78
2022-09-15T02:56:51.432Z,66.88
2022-09-15T02:57:51.600Z,66.88
2022-09-15T02:58:51.753Z,66.88
2022-09-15T02:59:51.917Z,66.88
2022-09-15T03:00:52.138Z,66.99
2022-09-15T03:01:52.345Z,66.78
2022-09-15T03:02:52.423Z,66.88
2022-09-15T03:03:52.586Z,66.88
2022-09-15T03:04:52.754Z,66.99
2022-09-15T03:05:52.913Z,66.88
2022-09-15T03:06:53.093Z,66.88
2022-09-15T03:07:53.256Z,66.88
2022-09-15T03:08:53.416Z,66.99
2022-09-15T03:09:53.576Z,66.88
2022-09-15T03:10:53.731Z,66.88
2022-09-15T03:11:53.907Z,66.88
2022-09-15T03:12:54.073Z,66.88
2022-09-15T03:13:54.246Z,66.99
2022-09-15T03:14:54.392Z,66.88
2022-09-15T03:15:54.658Z,66.99
2022-09-15T03:16:54.773Z,66.88
2022-09-15T03:17:54.935Z,66.88
2022-09-15T03:18:55.194Z,66.88
2022-09-15T03:19:55.286Z,66.88
2022-09-15T03:20:55.451Z,66.99
2022-09-15T03:21:55.623Z,66.88
2022-09-15T03:22:55.792Z,66.99
2022-09-15T03:23:55.951Z,66.99
2022-09-15T03:24:56.110Z,66.99
2022-09-15T03:25:56.273Z,66.99
2022-09-15T03:26:56.441Z,66.99
2022-09-15T03:27:56.615Z,66.99
2022-09-15T03:28:56.770Z,66.99
2022-09-15T03:29:56.942Z,66.99
2022-09-15T03:30:57.104Z,66.99
2022-09-15T03:31:57.317Z,66.88
2022-09-15T03:32:57.416Z,66.99
2022-09-15T03:33:57.614Z,66.88
2022-09-15T03:34:58.695Z,66.99
2022-09-15T03:35:57.984Z,66.88
2022-09-15T03:36:58.145Z,66.99
2022-09-15T03:37:58.304Z,66.99
2022-09-15T03:38:58.465Z,66.99
2022-09-15T03:39:58.683Z,66.88
2022-09-15T03:40:58.825Z,66.99
2022-09-15T03:41:58.991Z,66.99
2022-09-15T03:42:59.153Z,67.02
2022-09-15T03:43:59.306Z,67.08
2022-09-15T03:44:59.485Z,66.99
2022-09-15T03:45:59.691Z,67.11
2022-09-15T03:46:59.807Z,67.02
2022-09-15T03:47:59.977Z,66.99
2022-09-15T03:49:00.136Z,67.02
2022-09-15T03:50:00.311Z,67.02
2022-09-15T03:51:00.468Z,67.02
2022-09-15T03:52:00.630Z,67.02
2022-09-15T03:53:00.787Z,67.02
2022-09-15T03:54:00.951Z,67.02
2022-09-15T03:55:01.123Z,67.11
2022-09-15T03:56:01.280Z,67.02
2022-09-15T03:57:01.480Z,67.11
2022-09-15T03:58:01.610Z,67.11
2022-09-15T03:59:01.808Z,67.11
2022-09-15T04:00:02.017Z,67.02
2022-09-15T04:01:02.151Z,67.11
2022-09-15T04:02:02.379Z,67.11
2022-09-15T04:03:02.509Z,67.11
2022-09-15T04:04:02.685Z,67.22
2022-09-15T04:05:02.854Z,67.02
2022-09-15T04:06:03.014Z,67.11
2022-09-15T04:07:03.174Z,67.11
2022-09-15T04:08:03.364Z,67.11
2022-09-15T04:09:03.523Z,67.11
2022-09-15T04:10:03.722Z,67.02
2022-09-15T04:11:03.907Z,67.11
2022-09-15T04:12:04.066Z,67.11
2022-09-15T04:13:04.219Z,67.11
2022-09-15T04:14:04.428Z,67.11
2022-09-15T04:15:04.587Z,67.11
2022-09-15T04:16:04.815Z,67.14
2022-09-15T04:17:04.926Z,67.22
2022-09-15T04:18:05.119Z,67.11
2022-09-15T04:19:05.278Z,67.25
2022-09-15T04:20:05.443Z,67.11
2022-09-15T04:21:05.627Z,67.14
2022-09-15T04:22:05.779Z,67.25
2022-09-15T04:23:05.939Z,67.25
2022-09-15T04:24:06.137Z,67.14
2022-09-15T04:25:06.281Z,67.25
2022-09-15T04:26:06.496Z,67.25
2022-09-15T04:27:06.656Z,67.14
2022-09-15T04:28:06.842Z,67.14
2022-09-15T04:29:06.999Z,67.14
2022-09-15T04:30:07.192Z,67.25
2022-09-15T04:31:07.428Z,67.25
2022-09-15T04:32:07.550Z,67.25
2022-09-15T04:33:07.711Z,67.25
2022-09-15T04:34:07.868Z,67.25
2022-09-15T04:35:08.029Z,67.25
2022-09-15T04:36:08.184Z,67.25
2022-09-15T04:37:08.366Z,67.25
2022-09-15T04:38:08.536Z,67.25
2022-09-15T04:39:08.722Z,67.25
2022-09-15T04:40:09.003Z,67.25
2022-09-15T04:41:09.089Z,67.25
2022-09-15T04:42:09.268Z,67.35
2022-09-15T04:43:09.426Z,67.35
2022-09-15T04:44:09.587Z,67.25
2022-09-15T04:45:09.765Z,67.25
2022-09-15T04:46:09.986Z,67.35
2022-09-15T04:47:10.118Z,67.25
2022-09-15T04:48:10.254Z,67.35
2022-09-15T04:49:10.432Z,67.35
2022-09-15T04:50:10.608Z,67.35
2022-09-15T04:51:10.802Z,67.38
2022-09-15T04:52:10.977Z,67.38
2022-09-15T04:53:11.129Z,67.38
2022-09-15T04:54:11.311Z,67.38
2022-09-15T04:55:11.495Z,67.38
2022-09-15T04:56:11.675Z,67.38
2022-09-15T04:57:11.875Z,67.48
2022-09-15T04:58:12.021Z,67.48
2022-09-15T04:59:12.216Z,67.38
2022-09-15T05:00:12.361Z,67.48
2022-09-15T05:01:12.651Z,67.38
2022-09-15T05:02:12.766Z,67.38
2022-09-15T05:03:12.896Z,67.48
2022-09-15T05:04:13.072Z,67.48
2022-09-15T05:05:13.258Z,67.48
2022-09-15T05:06:13.439Z,67.48
2022-09-15T05:07:13.635Z,67.48
2022-09-15T05:08:13.793Z,67.58
2022-09-15T05:09:13.942Z,67.48
2022-09-15T05:10:14.120Z,67.68
2022-09-15T05:11:14.295Z,67.68
2022-09-15T05:12:14.478Z,67.58
2022-09-15T05:13:14.686Z,67.68
2022-09-15T05:14:14.835Z,67.58
2022-09-15T05:15:15.007Z,67.68
2022-09-15T05:16:15.268Z,67.58
2022-09-15T05:17:15.358Z,67.58
2022-09-15T05:18:15.552Z,67.68
2022-09-15T05:19:15.725Z,67.68
2022-09-15T05:20:15.909Z,67.68
2022-09-15T05:21:16.087Z,67.68
2022-09-15T05:22:16.288Z,67.58
2022-09-15T05:23:16.428Z,67.68
2022-09-15T05:24:16.612Z,67.68
2022-09-15T05:25:16.792Z,67.48
2022-09-15T05:26:16.969Z,67.68
2022-09-15T05:27:17.164Z,67.68
2022-09-15T05:28:17.311Z,67.65
2022-09-15T05:29:17.494Z,67.75
2022-09-15T05:30:36.823Z,67.65
2022-09-15T05:31:18.870Z,67.88
2022-09-15T05:32:18.026Z,67.65
2022-09-15T05:33:18.180Z,67.65
2022-09-15T05:34:18.357Z,67.55
2022-09-15T05:35:18.541Z,67.45
2022-09-15T05:36:18.686Z,67.65
2022-09-15T05:37:19.902Z,67.65
2022-09-15T05:38:19.040Z,67.55
2022-09-15T05:39:19.222Z,67.55
2022-09-15T05:40:19.450Z,67.55
2022-09-15T05:41:19.585Z,67.55
2022-09-15T05:42:19.803Z,67.35
2022-09-15T05:43:19.949Z,67.65
2022-09-15T05:44:20.129Z,67.65
2022-09-15T05:45:20.316Z,67.75
2022-09-15T05:46:20.606Z,67.55
2022-09-15T05:47:20.690Z,67.55
2022-09-15T05:48:20.866Z,67.35
2022-09-15T05:49:21.006Z,67.55
2022-09-15T05:50:21.182Z,67.55
2022-09-15T05:51:21.386Z,67.35
2022-09-15T05:52:21.678Z,67.45
2022-09-15T05:53:21.733Z,67.55
2022-09-15T05:54:21.881Z,67.55
2022-09-15T05:55:22.056Z,67.65
2022-09-15T05:56:22.251Z,67.65
2022-09-15T05:57:22.459Z,67.65
2022-09-15T05:58:22.620Z,67.35
2022-09-15T05:59:22.794Z,67.85
2022-09-15T06:00:22.961Z,67.65
2022-09-15T06:01:23.190Z,67.65
2022-09-15T06:02:23.374Z,67.75
2022-09-15T06:03:27.411Z,67.75
2022-09-15T06:04:24.664Z,67.65
2022-09-15T06:05:23.843Z,67.65
2022-09-15T06:06:24.007Z,67.45
2022-09-15T06:07:24.185Z,67.32
2022-09-15T06:08:24.325Z,67.52
2022-09-15T06:09:24.514Z,67.61
2022-09-15T06:10:24.696Z,67.32
2022-09-15T06:11:24.885Z,67.32
2022-09-15T06:12:25.065Z,67.42
2022-09-15T06:13:25.239Z,67.52
2022-09-15T06:14:25.418Z,67.52
2022-09-15T06:15:25.619Z,67.52
2022-09-15T06:16:25.864Z,67.42
2022-09-15T06:17:25.955Z,67.32
2022-09-15T06:18:26.098Z,67.61
2022-09-15T06:19:26.327Z,67.52
2022-09-15T06:20:26.497Z,67.32
2022-09-15T06:21:26.618Z,67.22
2022-09-15T06:22:26.802Z,67.32
2022-09-15T06:23:26.975Z,67.42
2022-09-15T06:24:27.194Z,67.52
2022-09-15T06:25:27.348Z,67.38
2022-09-15T06:26:27.527Z,67.32
2022-09-15T06:27:27.714Z,67.29
2022-09-15T06:28:27.917Z,67.18
2022-09-15T06:29:28.062Z,67.18
2022-09-15T06:30:28.242Z,67.29
2022-09-15T06:31:28.510Z,67.08
2022-09-15T06:32:28.611Z,66.88
2022-09-15T06:33:28.782Z,66.78
2022-09-15T06:34:28.922Z,66.99
2022-09-15T06:35:29.111Z,66.99
2022-09-15T06:36:29.298Z,66.99
2022-09-15T06:37:29.511Z,66.88
2022-09-15T06:38:29.676Z,66.88
2022-09-15T06:39:29.854Z,66.88
2022-09-15T06:40:30.116Z,66.65
2022-09-15T06:41:42.647Z,66.68
2022-09-15T06:42:31.375Z,66.65
2022-09-15T06:43:30.575Z,66.55
2022-09-15T06:44:30.716Z,66.55
2022-09-15T06:45:30.919Z,66.45
2022-09-15T06:46:31.112Z,66.55
2022-09-15T06:47:31.268Z,66.55
2022-09-15T06:48:31.465Z,66.55
2022-09-15T06:49:31.641Z,66.45
2022-09-15T06:50:31.827Z,66.45
2022-09-15T06:51:32.018Z,66.45
2022-09-15T06:52:32.196Z,66.45
2022-09-15T06:53:32.391Z,66.32
2022-09-15T06:54:32.537Z,66.32
2022-09-15T06:55:32.725Z,66.32
2022-09-15T06:56:37.201Z,66.22
2022-09-15T06:57:34.076Z,66.22
2022-09-15T06:58:33.274Z,66.22
2022-09-15T06:59:33.419Z,66.22
2022-09-15T07:00:33.569Z,66.12
2022-09-15T07:01:33.750Z,66.12
2022-09-15T07:02:34.102Z,66.02
2022-09-15T07:03:34.255Z,65.92
2022-09-15T07:04:34.312Z,65.99
2022-09-15T07:05:34.495Z,66.09
2022-09-15T07:06:34.682Z,65.99
2022-09-15T07:07:34.873Z,65.78
2022-09-15T07:08:35.041Z,65.69
2022-09-15T07:09:35.565Z,65.59
2022-09-15T07:10:35.378Z,65.99
2022-09-15T07:11:35.557Z,66.69
2022-09-15T07:12:35.705Z,67.69
2022-09-15T07:13:35.928Z,67.46
2022-09-15T07:14:36.073Z,67.25
2022-09-15T07:15:36.247Z,67.05
2022-09-15T07:16:36.510Z,67.16
2022-09-15T07:17:36.657Z,66.96
2022-09-15T07:18:40.962Z,66.55
2022-09-15T07:19:37.956Z,66.46
2022-09-15T07:20:37.118Z,66.13
2022-09-15T07:21:37.271Z,65.62
2022-09-15T07:22:37.419Z,65.52
2022-09-15T07:23:37.634Z,65.12
2022-09-15T07:24:37.768Z,65.33
2022-09-15T07:25:38.358Z,65.33
2022-09-15T07:26:38.125Z,65.33
2022-09-15T07:27:38.404Z,65.49
2022-09-15T07:28:41.225Z,66.09
2022-09-15T07:29:38.658Z,66.09
2022-09-15T07:30:38.951Z,65.99
2022-09-15T07:31:39.128Z,65.59
2022-09-15T07:32:39.156Z,64.89
2022-09-15T07:33:39.362Z,64.59
2022-09-15T07:34:39.517Z,64.39
2022-09-15T07:35:39.662Z,64.29
2022-09-15T07:36:39.823Z,64.19
2022-09-15T07:37:40.013Z,64.16
2022-09-15T07:38:40.174Z,64.26
2022-09-15T07:39:40.364Z,64.36
2022-09-15T07:40:41.498Z,64.56
2022-09-15T07:41:40.702Z,64.56
2022-09-15T07:42:40.845Z,64.16
2022-09-15T07:44:39.328Z,63.86
2022-09-15T07:45:39.511Z,63.76
2022-09-15T07:46:39.638Z,63.46
2022-09-15T07:47:39.821Z,63.43
2022-09-15T07:48:39.997Z,63.33
2022-09-15T07:49:40.200Z,63.23
2022-09-15T07:50:40.343Z,63.33
2022-09-15T07:51:40.521Z,63.23
2022-09-15T07:52:40.700Z,63.13
2022-09-15T07:53:40.913Z,63.13
2022-09-15T07:54:41.062Z,63.00
2022-09-15T07:55:41.240Z,63.80
2022-09-15T07:56:41.424Z,63.80
2022-09-15T07:57:42.189Z,64.30
2022-09-15T07:58:41.839Z,64.80
2022-09-15T07:59:41.970Z,65.40
2022-09-15T08:00:42.209Z,65.26
2022-09-15T08:01:42.375Z,65.26
2022-09-15T08:02:42.495Z,65.17
2022-09-15T08:03:42.738Z,65.07
2022-09-15T08:04:42.876Z,64.67
2022-09-15T08:05:45.642Z,64.87
2022-09-15T08:06:43.187Z,64.54
2022-09-15T08:07:43.350Z,64.34
2022-09-15T08:08:44.506Z,64.34
2022-09-15T08:09:43.677Z,64.84
2022-09-15T08:10:43.841Z,64.74
2022-09-15T08:11:44.018Z,64.44
2022-09-15T08:12:44.171Z,63.91
2022-09-15T08:13:44.375Z,63.71
2022-09-15T08:14:44.563Z,63.21
2022-09-15T08:15:44.749Z,62.71
2022-09-15T08:16:44.871Z,63.11
2022-09-15T08:17:45.021Z,63.21
2022-09-15T08:18:45.298Z,62.81
2022-09-15T08:19:45.391Z,62.59
2022-09-15T08:20:45.546Z,62.18
2022-09-15T08:21:45.711Z,61.99
2022-09-15T08:22:45.891Z,62.48
2022-09-15T08:23:46.072Z,62.78
2022-09-15T08:24:46.271Z,62.59
2022-09-15T08:25:46.424Z,62.38
2022-09-15T08:26:46.612Z,62.18
2022-09-15T08:27:46.789Z,62.26
2022-09-15T08:28:46.933Z,62.26
2022-09-15T08:29:47.122Z,62.35
2022-09-15T08:30:47.258Z,62.26
2022-09-15T08:31:47.503Z,61.93
2022-09-15T08:32:47.578Z,61.55
2022-09-15T08:33:47.745Z,61.53
2022-09-15T08:34:47.938Z,61.63
2022-09-15T08:35:48.104Z,61.63
2022-09-15T08:36:48.275Z,61.23
2022-09-15T08:37:48.445Z,61.43
2022-09-15T08:38:48.612Z,61.40
2022-09-15T08:39:48.846Z,61.10
2022-09-15T08:40:48.937Z,61.10
2022-09-15T08:41:49.125Z,60.70
2022-09-15T08:42:49.309Z,60.90
2022-09-15T08:43:49.505Z,60.21
2022-09-15T08:44:49.685Z,60.11
2022-09-15T08:45:49.810Z,60.21
2022-09-15T08:46:50.045Z,60.21
2022-09-15T08:47:50.176Z,60.43
2022-09-15T08:48:50.360Z,60.33
2022-09-15T08:49:52.676Z,60.24
2022-09-15T08:50:50.699Z,60.13
2022-09-15T08:51:50.885Z,60.24
2022-09-15T08:52:51.073Z,59.83
2022-09-15T08:53:51.383Z,59.64
2022-09-15T08:54:51.428Z,59.64
2022-09-15T08:55:51.616Z,59.74
2022-09-15T08:56:51.787Z,59.83
2022-09-15T08:57:51.959Z,59.83
2022-09-15T08:58:52.136Z,59.74
2022-09-15T08:59:52.355Z,59.83
2022-09-15T09:00:52.487Z,59.83
2022-09-15T09:01:52.688Z,59.94
2022-09-15T09:02:52.891Z,59.94
2022-09-15T09:03:52.981Z,59.74
2022-09-15T09:04:53.170Z,59.64
2022-09-15T09:05:53.365Z,59.74
2022-09-15T09:06:53.512Z,59.64
2022-09-15T09:07:53.666Z,59.74
2022-09-15T09:08:53.859Z,59.53
2022-09-15T09:09:54.006Z,59.34
2022-09-15T09:10:54.187Z,59.44
2022-09-15T09:11:54.378Z,59.34
2022-09-15T09:12:54.559Z,59.23
2022-09-15T09:13:54.740Z,59.53
2022-09-15T09:14:54.931Z,59.44
2022-09-15T09:15:55.148Z,59.64
2022-09-15T09:16:55.314Z,59.34
2022-09-15T09:17:55.488Z,59.44
2022-09-15T09:18:55.673Z,59.23
2022-09-15T09:19:55.859Z,59.23
2022-09-15T09:20:56.069Z,59.23
2022-09-15T09:21:56.212Z,59.23
2022-09-15T09:22:56.383Z,59.53
2022-09-15T09:23:56.552Z,59.44
2022-09-15T09:24:56.743Z,59.44
2022-09-15T09:25:56.933Z,59.44
2022-09-15T09:26:57.125Z,59.53
2022-09-15T09:27:57.264Z,59.44
2022-09-15T09:28:57.466Z,59.23
2022-09-15T09:29:57.644Z,58.91
2022-09-15T09:30:57.851Z,58.91
2022-09-15T09:31:57.995Z,59.21
2022-09-15T09:32:58.157Z,59.11
2022-09-15T09:33:58.316Z,58.91
2022-09-15T09:34:58.495Z,59.41
2022-09-15T09:35:58.648Z,59.31
2022-09-15T09:36:58.816Z,59.21
2022-09-15T09:37:58.977Z,59.21
2022-09-15T09:38:59.146Z,59.28
2022-09-15T09:39:59.471Z,59.18
2022-09-15T09:41:02.341Z,58.88
2022-09-15T09:41:59.670Z,58.88
2022-09-15T09:42:59.855Z,58.58
2022-09-15T09:44:00.019Z,57.59
2022-09-15T09:45:00.172Z,57.66
2022-09-15T09:46:00.398Z,57.86
2022-09-15T09:47:00.504Z,57.46
2022-09-15T09:48:01.819Z,57.46
2022-09-15T09:49:00.843Z,57.66
2022-09-15T09:50:00.991Z,57.76
2022-09-15T09:51:01.155Z,57.66
2022-09-15T09:52:01.333Z,57.83
2022-09-15T09:53:01.511Z,57.64
2022-09-15T09:54:01.743Z,57.24
2022-09-15T09:55:01.852Z,57.14
2022-09-15T09:56:02.035Z,57.31
2022-09-15T09:57:02.215Z,57.41
2022-09-15T09:58:02.394Z,57.11
2022-09-15T09:59:02.626Z,57.01
2022-09-15T10:00:02.765Z,56.88
2022-09-15T10:01:03.000Z,57.18
2022-09-15T10:02:03.250Z,56.59
2022-09-15T10:03:03.327Z,56.78
2022-09-15T10:04:03.517Z,56.88
2022-09-15T10:05:03.735Z,56.19
2022-09-15T10:06:03.839Z,56.06
2022-09-15T10:07:04.013Z,55.87
2022-09-15T10:08:04.172Z,55.47
2022-09-15T10:09:04.350Z,55.76
2022-09-15T10:10:04.492Z,55.76
2022-09-15T10:11:04.674Z,55.57
2022-09-15T10:12:04.851Z,55.87
2022-09-15T10:13:05.042Z,55.64
2022-09-15T10:14:05.200Z,55.44
2022-09-15T10:15:05.352Z,55.15
2022-09-15T10:16:05.535Z,55.34
2022-09-15T10:17:05.765Z,55.44
2022-09-15T10:18:05.889Z,55.41
2022-09-15T10:19:06.031Z,55.32
2022-09-15T10:20:06.203Z,55.11
2022-09-15T10:21:06.389Z,55.29
2022-09-15T10:22:06.577Z,55.09
2022-09-15T10:23:06.775Z,54.20
2022-09-15T10:24:06.919Z,54.27
2022-09-15T10:25:07.103Z,54.77
2022-09-15T10:26:07.284Z,54.57
2022-09-15T10:27:07.474Z,54.54
2022-09-15T10:28:07.674Z,54.05
2022-09-15T10:29:09.342Z,53.72
2022-09-15T10:30:07.996Z,53.82
2022-09-15T10:31:08.177Z,54.12
2022-09-15T10:32:08.399Z,53.89
2022-09-15T10:33:13.526Z,52.91
2022-09-15T10:34:08.727Z,51.89
2022-09-15T10:35:08.867Z,52.88
2022-09-15T10:36:09.048Z,52.46
2022-09-15T10:37:09.269Z,51.77
2022-09-15T10:38:09.432Z,52.44
2022-09-15T10:39:09.613Z,52.53
2022-09-15T10:40:09.786Z,52.73
2022-09-15T10:41:09.920Z,52.80
2022-09-15T10:42:10.097Z,52.61
2022-09-15T10:43:10.253Z,52.39
2022-09-15T10:44:10.415Z,51.99
2022-09-15T10:45:10.559Z,51.97
2022-09-15T10:46:10.806Z,50.68
2022-09-15T10:47:10.873Z,48.98
2022-09-15T10:48:11.073Z,49.06
2022-09-15T10:49:11.250Z,50.63
2022-09-15T10:50:11.453Z,49.82
2022-09-15T10:51:11.589Z,50.42
2022-09-15T10:52:11.734Z,48.14
2022-09-15T10:53:11.945Z,47.16
2022-09-15T10:54:12.088Z,47.85
2022-09-15T10:55:12.262Z,48.35
2022-09-15T10:56:12.452Z,48.14
2022-09-15T10:57:12.612Z,46.77
2022-09-15T10:58:12.762Z,46.28
2022-09-15T10:59:12.939Z,46.28
2022-09-15T11:00:13.078Z,45.09
2022-09-15T11:01:13.350Z,47.46
2022-09-15T11:02:13.496Z,47.66
2022-09-15T11:03:13.620Z,46.28
2022-09-15T11:04:13.771Z,47.19
2022-09-15T11:05:13.954Z,47.38
2022-09-15T11:06:14.106Z,46.59
2022-09-15T11:07:14.330Z,46.59
2022-09-15T11:08:14.494Z,45.41
2022-09-15T11:09:14.632Z,46.50
2022-09-15T11:10:14.942Z,45.19
2022-09-15T11:11:14.995Z,46.67
2022-09-15T11:12:15.209Z,47.06
2022-09-15T11:13:15.375Z,46.28
2022-09-15T11:14:15.544Z,44.21
2022-09-15T11:15:15.699Z,43.62
2022-09-15T11:16:15.988Z,44.11
2022-09-15T11:17:16.045Z,43.44
2022-09-15T11:18:16.308Z,44.13
2022-09-15T11:19:16.432Z,43.74
2022-09-15T11:20:16.685Z,43.86
2022-09-15T11:21:16.791Z,43.66
2022-09-15T11:22:16.908Z,43.98
2022-09-15T11:23:17.138Z,43.68
2022-09-15T11:24:17.319Z,43.60
2022-09-15T11:25:17.480Z,44.79
2022-09-15T11:26:17.689Z,44.59
2022-09-15T11:27:17.837Z,44.22
2022-09-15T11:28:18.001Z,44.32
2022-09-15T11:29:18.196Z,44.71
2022-09-15T11:30:18.343Z,44.12
2022-09-15T11:31:18.552Z,44.81
2022-09-15T11:32:18.664Z,45.30
2022-09-15T11:33:18.820Z,45.40
2022-09-15T11:34:19.004Z,45.30
2022-09-15T11:35:19.192Z,45.50
2022-09-15T11:36:19.374Z,45.60
2022-09-15T11:37:19.555Z,45.40
2022-09-15T11:38:19.696Z,44.83
2022-09-15T11:39:19.915Z,44.24
2022-09-15T11:40:20.198Z,44.34
2022-09-15T11:41:20.265Z,45.05
2022-09-15T11:42:20.431Z,45.45
2022-09-15T11:43:20.612Z,44.73
2022-09-15T11:44:20.763Z,44.43
2022-09-15T11:45:20.937Z,44.73
2022-09-15T11:46:21.141Z,45.94
2022-09-15T11:47:21.328Z,45.94
2022-09-15T11:48:21.463Z,45.45
2022-09-15T11:49:21.630Z,46.14
2022-09-15T11:50:21.816Z,45.54
2022-09-15T11:51:21.971Z,46.36
2022-09-15T11:52:22.143Z,46.66
2022-09-15T11:53:22.309Z,45.86
2022-09-15T11:54:22.512Z,46.55
2022-09-15T11:55:22.689Z,46.55
2022-09-15T11:56:22.840Z,46.36
2022-09-15T11:57:23.024Z,46.45
2022-09-15T11:58:23.183Z,45.96
2022-09-15T11:59:23.369Z,46.48
2022-09-15T12:00:23.545Z,45.89
2022-09-15T12:01:23.701Z,46.38
2022-09-15T12:02:23.925Z,46.78
2022-09-15T12:03:24.007Z,47.17
2022-09-15T12:04:24.200Z,47.27
2022-09-15T12:05:24.406Z,46.88
2022-09-15T12:06:24.556Z,46.48
2022-09-15T12:07:24.736Z,46.38
2022-09-15T12:08:24.925Z,47.17
2022-09-15T12:09:25.089Z,45.98
2022-09-15T12:10:25.276Z,45.79
2022-09-15T12:11:25.444Z,45.89
2022-09-15T12:12:29.348Z,46.08
2022-09-15T12:13:26.773Z,47.27
2022-09-15T12:14:25.959Z,46.45
2022-09-15T12:15:26.128Z,47.25
2022-09-15T12:16:26.356Z,47.15
2022-09-15T12:17:26.482Z,47.34
2022-09-15T12:18:38.462Z,47.05
2022-09-15T12:19:27.833Z,46.45
2022-09-15T12:20:26.992Z,46.95
2022-09-15T12:21:27.143Z,46.23
2022-09-15T12:22:27.344Z,45.84
2022-09-15T12:23:27.525Z,46.73
2022-09-15T12:24:27.732Z,47.13
2022-09-15T12:25:27.897Z,46.33
2022-09-15T12:26:28.062Z,46.44
2022-09-15T12:27:28.229Z,45.15
2022-09-15T12:28:28.537Z,46.45
2022-09-15T12:29:28.581Z,46.06
2022-09-15T12:30:28.766Z,45.96
2022-09-15T12:31:28.972Z,45.57
2022-09-15T12:32:29.143Z,45.57
2022-09-15T12:33:29.289Z,45.07
2022-09-15T12:34:29.480Z,45.68
2022-09-15T12:35:29.679Z,45.98
2022-09-15T12:36:29.830Z,45.29
2022-09-15T12:37:29.970Z,45.79
2022-09-15T12:38:30.187Z,46.67
2022-09-15T12:39:30.336Z,46.28
2022-09-15T12:40:30.520Z,46.20
2022-09-15T12:41:30.631Z,46.50
2022-09-15T12:42:30.822Z,46.70
2022-09-15T12:43:31.031Z,46.60
2022-09-15T12:44:31.174Z,46.80
2022-09-15T12:45:31.321Z,46.50
2022-09-15T12:46:31.564Z,46.89
2022-09-15T12:47:31.698Z,47.22
2022-09-15T12:48:31.890Z,47.91
2022-09-15T12:49:32.028Z,47.91
2022-09-15T12:50:32.231Z,48.21
2022-09-15T12:51:32.451Z,48.01
2022-09-15T12:52:32.611Z,48.21
2022-09-15T12:53:32.785Z,47.81
2022-09-15T12:54:32.982Z,47.61
2022-09-15T12:55:33.269Z,48.40